Observation data for Plainview on 05/25/2019      Previous  Date  Next       Current Mesonet Observations  Soil Data  Daily Summary Page  Observations in Plain Language
KPVS 250500Z 15010G15KT 19/16 A2998 RMK A01 T01880160  RH  085%=      5-min Rain = 0
KPVS 250505Z 15010KT 19/16 A2998 RMK A01 T01920163  RH  086%=      5-min Rain = 0
KPVS 250510Z 14009KT 19/17 A2998 RMK A01 T01920165  RH  086%=      5-min Rain = 0
KPVS 250515Z 14010KT 19/17 A2998 RMK A01 T01920167  RH  088%=      5-min Rain = 0
KPVS 250520Z 14011KT 19/17 A2998 RMK A01 T01920169  RH  089%=      5-min Rain = 0
KPVS 250525Z 15010G16KT 19/17 A2998 RMK A01 T01920171  RH  090%=      5-min Rain = 0
KPVS 250530Z 15009KT 19/17 A2998 RMK A01 T01920171  RH  090%=      5-min Rain = 0
KPVS 250535Z 14010KT 19/17 A2998 RMK A01 T01900171  RH  091%=      5-min Rain = 0
KPVS 250540Z 15010KT 19/17 A2998 RMK A01 T01900171  RH  091%=      5-min Rain = 0
KPVS 250545Z 14011G16KT 19/17 A2998 RMK A01 T01890170  RH  091%=      5-min Rain = 0
KPVS 250550Z 14010KT 19/17 A2998 RMK A01 T01870169  RH  091%=      5-min Rain = 0
KPVS 250555Z 14010G15KT 19/17 A2998 RMK A01 T01860169  RH  092%=      5-min Rain = 0
KPVS 250600Z 14012KT 19/17 A2997 RMK A01 T01850169  RH  092%=      5-min Rain = 0
KPVS 250605Z 14012G20KT 19/17 A2997 RMK A01 T01850169  RH  093%=      5-min Rain = 0
KPVS 250610Z 14010G16KT 18/17 A2997 RMK A01 T01840169  RH  093%=      5-min Rain = 0
KPVS 250615Z 14010G16KT 18/17 A2997 RMK A01 T01820168  RH  094%=      5-min Rain = 0
KPVS 250620Z 14010KT 18/17 A2997 RMK A01 T01810168  RH  094%=      5-min Rain = 0
KPVS 250625Z 13010G15KT 18/17 A2997 RMK A01 T01800168  RH  095%=      5-min Rain = 0
KPVS 250630Z 13010KT 18/17 A2997 RMK A01 T01790167  RH  095%=      5-min Rain = 0
KPVS 250635Z 13009G14KT 18/17 A2997 RMK A01 T01780167  RH  096%=      5-min Rain = 0
KPVS 250640Z 13012KT 18/17 A2997 RMK A01 T01770167  RH  096%=      5-min Rain = 0
KPVS 250645Z 13011KT 18/17 A2997 RMK A01 T01770167  RH  096%=      5-min Rain = 0
KPVS 250650Z 13011KT 18/17 A2997 RMK A01 T01760166  RH  096%=      5-min Rain = 0
KPVS 250655Z 13010KT 18/17 A2997 RMK A01 T01750166  RH  096%=      5-min Rain = 0
KPVS 250700Z 13010KT 17/17 A2997 RMK A01 T01740165  RH  096%=      5-min Rain = 0
KPVS 250705Z 13009KT 17/16 A2996 RMK A01 T01730164  RH  097%=      5-min Rain = 0
KPVS 250710Z 13009KT 17/16 A2997 RMK A01 T01720164  RH  097%=      5-min Rain = 0
KPVS 250715Z 13007KT 17/16 A2997 RMK A01 T01710163  RH  097%=      5-min Rain = 0
KPVS 250720Z 13007KT 17/16 A2997 RMK A01 T01710163  RH  098%=      5-min Rain = 0
KPVS 250725Z 13008KT 17/16 A2997 RMK A01 T01700163  RH  098%=      5-min Rain = 0
KPVS 250730Z 13009KT 17/16 A2996 RMK A01 T01700164  RH  098%=      5-min Rain = 0
KPVS 250735Z 13009KT 17/16 A2996 RMK A01 T01710164  RH  098%=      5-min Rain = 0
KPVS 250740Z 13009KT 17/17 A2996 RMK A01 T01710165  RH  099%=      5-min Rain = 0
KPVS 250745Z 14010KT 17/17 A2996 RMK A01 T01710166  RH  099%=      5-min Rain = 0
KPVS 250750Z 13010KT 17/17 A2996 RMK A01 T01720166  RH  099%=      5-min Rain = 0
KPVS 250755Z 13009KT 17/17 A2996 RMK A01 T01720167  RH  099%=      5-min Rain = 0
KPVS 250800Z 13009KT 17/17 A2996 RMK A01 T01730168  RH  099%=      5-min Rain = 0
KPVS 250805Z 14011KT 17/17 A2996 RMK A01 T01740170  RH  100%=      5-min Rain = 0
KPVS 250810Z 14011G16KT 17/17 A2996 RMK A01 T01740170  RH  100%=      5-min Rain = 0
KPVS 250815Z 14010G15KT 17/17 A2996 RMK A01 T01740171  RH  100%=      5-min Rain = 0
KPVS 250820Z 14010KT 18/17 A2996 RMK A01 T01750171  RH  100%=      5-min Rain = 0
KPVS 250825Z 14010KT 18/17 A2996 RMK A01 T01750171  RH  100%=      5-min Rain = 0
KPVS 250830Z 14009KT 18/17 A2996 RMK A01 T01750171  RH  100%=      5-min Rain = 0
KPVS 250835Z 14009KT 18/17 A2996 RMK A01 T01750171  RH  100%=      5-min Rain = 0
KPVS 250840Z 14009G14KT 18/17 A2996 RMK A01 T01750171  RH  100%=      5-min Rain = 0
KPVS 250845Z 14010G16KT 18/17 A2996 RMK A01 T01750172  RH  100%=      5-min Rain = 0
KPVS 250850Z 14010KT 18/17 A2996 RMK A01 T01750172  RH  100%=      5-min Rain = 0
KPVS 250855Z 15009KT 18/17 A2996 RMK A01 T01750172  RH  100%=      5-min Rain = 0
KPVS 250900Z 14009KT 18/17 A2996 RMK A01 T01750172  RH  100%=      5-min Rain = 0
KPVS 250905Z 15008G14KT 18/17 A2996 RMK A01 T01760172  RH  100%=      5-min Rain = 0
KPVS 250910Z 14007G12KT 18/17 A2995 RMK A01 T01760172  RH  100%=      5-min Rain = 0
KPVS 250915Z 14008G13KT 18/17 A2995 RMK A01 T01760172  RH  100%=      5-min Rain = 0
KPVS 250920Z 14010G15KT 18/17 A2995 RMK A01 T01770173  RH  100%=      5-min Rain = 0
KPVS 250925Z 14008G14KT 18/17 A2995 RMK A01 T01770173  RH  100%=      5-min Rain = 0
KPVS 250930Z 15010G15KT 18/17 A2995 RMK A01 T01770173  RH  100%=      5-min Rain = 0
KPVS 250935Z 15008G13KT 18/17 A2995 RMK A01 T01770173  RH  100%=      5-min Rain = 0
KPVS 250940Z 15006KT 18/17 A2995 RMK A01 T01770174  RH  100%=      5-min Rain = 0
KPVS 250945Z 15007KT 18/17 A2995 RMK A01 T01780174  RH  100%=      5-min Rain = 0
KPVS 250950Z 15007KT 18/17 A2996 RMK A01 T01780174  RH  100%=      5-min Rain = 0
KPVS 250955Z 15008KT 18/18 A2996 RMK A01 T01790175  RH  100%=      5-min Rain = 0
KPVS 251000Z 15009KT 18/18 A2996 RMK A01 T01790175  RH  100%=      5-min Rain = 0
KPVS 251005Z 15008KT 18/18 A2996 RMK A01 T01790175  RH  100%=      5-min Rain = 0
KPVS 251010Z 16008G13KT 18/18 A2996 RMK A01 T01790176  RH  100%=      5-min Rain = 0
KPVS 251015Z 16009G15KT 18/18 A2996 RMK A01 T01800176  RH  100%=      5-min Rain = 0
KPVS 251020Z 16010G16KT 18/18 A2996 RMK A01 T01800176  RH  100%=      5-min Rain = 0
KPVS 251025Z 16009KT 18/18 A2997 RMK A01 T01800176  RH  100%=      5-min Rain = 0
KPVS 251030Z 16009KT 18/18 A2997 RMK A01 T01800177  RH  100%=      5-min Rain = 0
KPVS 251035Z 15009G14KT 18/18 A2997 RMK A01 T01810177  RH  100%=      5-min Rain = 0
KPVS 251040Z 15009KT 18/18 A2997 RMK A01 T01810177  RH  100%=      5-min Rain = 0
KPVS 251045Z 15008G13KT 18/18 A2997 RMK A01 T01810177  RH  100%=      5-min Rain = 0
KPVS 251050Z 15008G13KT 18/18 A2997 RMK A01 T01810177  RH  100%=      5-min Rain = 0
KPVS 251055Z 15008G14KT 18/18 A2997 RMK A01 T01810177  RH  100%=      5-min Rain = 0
KPVS 251100Z 15008KT 18/18 A2997 RMK A01 T01810178  RH  100%=      5-min Rain = 0
KPVS 251105Z 15008KT 18/18 A2997 RMK A01 T01820178  RH  100%=      5-min Rain = 0
KPVS 251110Z 16008G13KT 18/18 A2997 RMK A01 T01820178  RH  100%=      5-min Rain = 0
KPVS 251115Z 16008KT 18/18 A2998 RMK A01 T01820178  RH  100%=      5-min Rain = 0
KPVS 251120Z 16009KT 18/18 A2998 RMK A01 T01820178  RH  100%=      5-min Rain = 0
KPVS 251125Z 16010KT 18/18 A2998 RMK A01 T01820178  RH  100%=      5-min Rain = 0
KPVS 251130Z 15008KT 18/18 A2998 RMK A01 T01820178  RH  100%=      5-min Rain = 0
KPVS 251135Z 15008KT 18/18 A2998 RMK A01 T01820178  RH  100%=      5-min Rain = 0
KPVS 251140Z 16008KT 18/18 A2998 RMK A01 T01820178  RH  100%=      5-min Rain = 0
KPVS 251145Z 15008G13KT 18/18 A2998 RMK A01 T01820178  RH  100%=      5-min Rain = 0
KPVS 251150Z 15008KT 18/18 A2998 RMK A01 T01820178  RH  100%=      5-min Rain = 0
KPVS 251155Z 15007G12KT 18/18 A2999 RMK A01 T01820179  RH  100%=      5-min Rain = 0
KPVS 251200Z 15008KT 18/18 A2999 RMK A01 T01830179  RH  100%=      5-min Rain = 0
KPVS 251205Z 15008KT 18/18 A2999 RMK A01 T01830179  RH  100%=      5-min Rain = 0
KPVS 251210Z 15009KT 18/18 A2999 RMK A01 T01840180  RH  100%=      5-min Rain = 0
KPVS 251215Z 15008KT 18/18 A2999 RMK A01 T01840180  RH  100%=      5-min Rain = 0
KPVS 251220Z 15008G13KT 19/18 A2999 RMK A01 T01850181  RH  100%=      5-min Rain = 0
KPVS 251225Z 15007G12KT 19/18 A2999 RMK A01 T01850181  RH  100%=      5-min Rain = 0
KPVS 251230Z 15008G13KT 19/18 A2999 RMK A01 T01850182  RH  100%=      5-min Rain = 0
KPVS 251235Z 15008G13KT 19/18 A2999 RMK A01 T01850182  RH  100%=      5-min Rain = 0
KPVS 251240Z 15008KT 19/18 A2999 RMK A01 T01860182  RH  100%=      5-min Rain = 0
KPVS 251245Z 16009G14KT 19/18 A2999 RMK A01 T01860182  RH  100%=      5-min Rain = 0
KPVS 251250Z 16010G16KT 19/18 A30 RMK A01 T01880184  RH  100%=      5-min Rain = 0
KPVS 251255Z 16013G19KT 19/18 A30 RMK A01 T01880184  RH  100%=      5-min Rain = 0
KPVS 251300Z 16013G18KT 19/19 A30 RMK A01 T01890185  RH  100%=      5-min Rain = 0
KPVS 251305Z 16012G17KT 19/19 A30 RMK A01 T01900186  RH  100%=      5-min Rain = 0
KPVS 251310Z 16012KT 19/19 A30 RMK A01 T01910187  RH  100%=      5-min Rain = 0
KPVS 251315Z 16011G16KT 19/19 A30 RMK A01 T01920188  RH  100%=      5-min Rain = 0
KPVS 251320Z 17012KT 19/19 A3001 RMK A01 T01930189  RH  100%=      5-min Rain = 0
KPVS 251325Z 17011G16KT 20/19 A3001 RMK A01 T01950190  RH  100%=      5-min Rain = 0
KPVS 251330Z 17012KT 20/19 A3001 RMK A01 T01950191  RH  100%=      5-min Rain = 0
KPVS 251335Z 17011G18KT 20/19 A3001 RMK A01 T01960192  RH  100%=      5-min Rain = 0
KPVS 251340Z 17011G16KT 20/19 A3001 RMK A01 T01970192  RH  100%=      5-min Rain = 0
KPVS 251345Z 17011KT 20/19 A3001 RMK A01 T01970192  RH  100%=      5-min Rain = 0
KPVS 251350Z 17010G15KT 20/19 A3001 RMK A01 T01980193  RH  099%=      5-min Rain = 0
KPVS 251355Z 17012KT 20/19 A3001 RMK A01 T01980193  RH  099%=      5-min Rain = 0
KPVS 251400Z 17011G17KT 20/19 A3001 RMK A01 T01980192  RH  099%=      5-min Rain = 0
KPVS 251405Z 17010KT 20/19 A3001 RMK A01 T01990193  RH  099%=      5-min Rain = 0
KPVS 251410Z 17011KT 20/19 A3002 RMK A01 T02000194  RH  099%=      5-min Rain = 0
KPVS 251415Z 17011G17KT 20/19 A3001 RMK A01 T02010194  RH  098%=      5-min Rain = 0
KPVS 251420Z 17011G17KT 20/20 A3001 RMK A01 T02020195  RH  098%=      5-min Rain = 0
KPVS 251425Z 17010KT 20/20 A3002 RMK A01 T02030195  RH  098%=      5-min Rain = 0
KPVS 251430Z 17011G17KT 20/20 A3002 RMK A01 T02030195  RH  097%=      5-min Rain = 0
KPVS 251435Z 17013G18KT 20/19 A3002 RMK A01 T02020193  RH  097%=      5-min Rain = 0
KPVS 251440Z 17012G18KT 20/19 A3002 RMK A01 T02020193  RH  097%=      5-min Rain = 0
KPVS 251445Z 17011KT 20/19 A3002 RMK A01 T02020193  RH  097%=      5-min Rain = 0
KPVS 251450Z 17012G17KT 20/19 A3003 RMK A01 T02020193  RH  097%=      5-min Rain = 0
KPVS 251455Z 17011KT 20/19 A3003 RMK A01 T02020193  RH  097%=      5-min Rain = 0
KPVS 251500Z 17010KT 20/19 A3003 RMK A01 T02020194  RH  098%=      5-min Rain = 0
KPVS 251505Z 17012KT 20/19 A3003 RMK A01 T02020194  RH  097%=      5-min Rain = 0
KPVS 251510Z 17010KT 20/19 A3002 RMK A01 T02030194  RH  097%=      5-min Rain = 0
KPVS 251515Z 16010KT 20/20 A3002 RMK A01 T02030195  RH  097%=      5-min Rain = 0
KPVS 251520Z 17010G15KT 20/19 A3002 RMK A01 T02030194  RH  097%=      5-min Rain = 0
KPVS 251525Z 16011G17KT 20/19 A3002 RMK A01 T02020194  RH  098%=      5-min Rain = 0
KPVS 251530Z 16011G16KT 20/19 A3002 RMK A01 T02030194  RH  098%=      5-min Rain = 0
KPVS 251535Z 17011G16KT 20/20 A3002 RMK A01 T02030195  RH  098%=      5-min Rain = 0
KPVS 251540Z 16010KT 20/20 A3002 RMK A01 T02030195  RH  098%=      5-min Rain = 0
KPVS 251545Z 16009G14KT 20/20 A3002 RMK A01 T02040196  RH  098%=      5-min Rain = 0
KPVS 251550Z 16010KT 21/20 A3002 RMK A01 T02050196  RH  097%=      5-min Rain = 0
KPVS 251555Z 16010KT 21/20 A3002 RMK A01 T02060197  RH  097%=      5-min Rain = 0
KPVS 251600Z 16010G17KT 21/20 A3002 RMK A01 T02070197  RH  097%=      5-min Rain = 0
KPVS 251605Z 16011G16KT 21/20 A3002 RMK A01 T02070197  RH  096%=      5-min Rain = 0
KPVS 251610Z 16011KT 21/20 A3002 RMK A01 T02080197  RH  096%=      5-min Rain = 0
KPVS 251615Z 16011G16KT 21/20 A3002 RMK A01 T02080197  RH  096%=      5-min Rain = 0
KPVS 251620Z 16012G17KT 21/20 A3002 RMK A01 T02090197  RH  096%=      5-min Rain = 0
KPVS 251625Z 16011G16KT 21/20 A3002 RMK A01 T02100198  RH  095%=      5-min Rain = 0
KPVS 251630Z 16008KT 21/20 A3002 RMK A01 T02110198  RH  095%=      5-min Rain = 0
KPVS 251635Z 16012G17KT 21/20 A3002 RMK A01 T02100197  RH  095%=      5-min Rain = 0
KPVS 251640Z 16012G17KT 21/20 A3002 RMK A01 T02100197  RH  095%=      5-min Rain = 0
KPVS 251645Z 16010G16KT 21/20 A3002 RMK A01 T02100197  RH  095%=      5-min Rain = 0
KPVS 251650Z 16012G17KT 21/20 A3002 RMK A01 T02100197  RH  095%=      5-min Rain = 0
KPVS 251655Z 15012G17KT 21/20 A3003 RMK A01 T02090197  RH  096%=      5-min Rain = 0
KPVS 251700Z 15013G19KT 21/20 A3003 RMK A01 T02070196  RH  096%=      5-min Rain = 0
KPVS 251705Z 16012G18KT 21/20 A3003 RMK A01 T02050196  RH  097%=      5-min Rain = 0
KPVS 251710Z 16010G15KT 20/20 A3003 RMK A01 T02040197  RH  098%=      5-min Rain = 0
KPVS 251715Z 16014KT 20/20 A3003 RMK A01 T02040197  RH  098%=      5-min Rain = 0
KPVS 251720Z 16012G17KT 20/20 A3003 RMK A01 T02040197  RH  098%=      5-min Rain = 0
KPVS 251725Z 16011G18KT 21/20 A3003 RMK A01 T02050198  RH  099%=      5-min Rain = 0
KPVS 251730Z 16011G17KT 21/20 A3003 RMK A01 T02060199  RH  099%=      5-min Rain = 0
KPVS 251735Z 16011G16KT 21/20 A3002 RMK A01 T02050199  RH  099%=      5-min Rain = 0
KPVS 251740Z 16012KT 21/20 A3002 RMK A01 T02060199  RH  099%=      5-min Rain = 0
KPVS 251745Z 16011G16KT 21/20 A3002 RMK A01 T02060199  RH  098%=      5-min Rain = 0
KPVS 251750Z 16011KT 21/20 A3002 RMK A01 T02060199  RH  098%=      5-min Rain = 0
KPVS 251755Z 16011G16KT 21/20 A3002 RMK A01 T02050198  RH  098%=      5-min Rain = 0
KPVS 251800Z 16009G15KT 21/20 A3002 RMK A01 T02060199  RH  098%=      5-min Rain = 0
KPVS 251805Z 16011G17KT 21/20 A3002 RMK A01 T02050198  RH  098%=      5-min Rain = 0
KPVS 251810Z 16010KT 21/20 A3002 RMK A01 T02060198  RH  098%=      5-min Rain = 0
KPVS 251815Z 16010G16KT 21/20 A3002 RMK A01 T02080198  RH  097%=      5-min Rain = 0
KPVS 251820Z 15010G15KT 21/20 A3001 RMK A01 T02080198  RH  097%=      5-min Rain = 0
KPVS 251825Z 15010G16KT 21/20 A3001 RMK A01 T02080198  RH  096%=      5-min Rain = 0
KPVS 251830Z 16011KT 21/20 A3001 RMK A01 T02080197  RH  096%=      5-min Rain = 0
KPVS 251835Z 15010G15KT 21/20 A30 RMK A01 T02080198  RH  096%=      5-min Rain = 0
KPVS 251840Z 15010G15KT 21/20 A30 RMK A01 T02080198  RH  096%=      5-min Rain = 0
KPVS 251845Z 15009G14KT 21/20 A30 RMK A01 T02080198  RH  096%=      5-min Rain = 0
KPVS 251850Z 15011G17KT 21/20 A30 RMK A01 T02070197  RH  096%=      5-min Rain = 0
KPVS 251855Z 15010KT 21/20 A2999 RMK A01 T02060197  RH  097%=      5-min Rain = 0
KPVS 251900Z 14010G16KT 21/20 A2998 RMK A01 T02060197  RH  097%=      5-min Rain = 0
KPVS 251905Z 14010G15KT 21/20 A2998 RMK A01 T02060197  RH  097%=      5-min Rain = 0
KPVS 251910Z 14009G15KT 21/20 A2998 RMK A01 T02060197  RH  097%=      5-min Rain = 0
KPVS 251915Z 15010KT 21/20 A2998 RMK A01 T02060197  RH  097%=      5-min Rain = 0
KPVS 251920Z 15009G14KT 21/20 A2999 RMK A01 T02060197  RH  097%=      5-min Rain = 0
KPVS 251925Z 15009KT 21/20 A2999 RMK A01 T02060197  RH  097%=      5-min Rain = 0
KPVS 251930Z 15010G15KT 21/20 A2998 RMK A01 T02050197  RH  097%=      5-min Rain = 0
KPVS 251935Z 14009KT 21/20 A2997 RMK A01 T02050196  RH  097%=      5-min Rain = 0
KPVS 251940Z 14011KT 21/20 A2997 RMK A01 T02050196  RH  098%=      5-min Rain = 0
KPVS 251945Z 13009G15KT 20/20 A2996 RMK A01 T02040197  RH  098%=      5-min Rain = 0
KPVS 251950Z 14012G19KT 20/20 A2997 RMK A01 T02040197  RH  098%=      5-min Rain = 0
KPVS 251955Z 14010KT 20/20 A2996 RMK A01 T02040197  RH  098%=      5-min Rain = 0
KPVS 252000Z 14011KT 20/20 A2995 RMK A01 T02040197  RH  098%=      5-min Rain = 0
KPVS 252005Z 14012G18KT 21/20 A2997 RMK A01 T02050197  RH  098%=      5-min Rain = 0
KPVS 252010Z 19014G29KT 20/20 A2998 RMK A01 T02040195  RH  097%=      5-min Rain = 0
KPVS 252015Z 26017G27KT 18/16 A2999 RMK A01 T01760160  RH  092%=      5-min Rain = 0.03
KPVS 252020Z 30019G25KT 17/16 A2998 RMK A01 T01650157  RH  097%=      5-min Rain = 0.02
KPVS 252025Z 30020G25KT 16/16 A2998 RMK A01 T01630158  RH  099%=      5-min Rain = 0
KPVS 252030Z 30013G18KT 16/16 A2999 RMK A01 T01640159  RH  099%=      5-min Rain = 0
KPVS 252035Z 32007G14KT 17/16 A2998 RMK A01 T01650159  RH  098%=      5-min Rain = 0
KPVS 252040Z 31006G12KT 17/16 A2998 RMK A01 T01680162  RH  098%=      5-min Rain = 0
KPVS 252045Z 07003KT 17/16 A2997 RMK A01 T01700163  RH  098%=      5-min Rain = 0
KPVS 252050Z 12001KT 17/17 A2998 RMK A01 T01730166  RH  098%=      5-min Rain = 0
KPVS 252055Z 09000KT 17/17 A2998 RMK A01 T01740167  RH  098%=      5-min Rain = 0
KPVS 252100Z 34002KT 18/17 A2998 RMK A01 T01750167  RH  097%=      5-min Rain = 0
KPVS 252105Z 05004KT 18/17 A2997 RMK A01 T01770170  RH  098%=      5-min Rain = 0
KPVS 252110Z 06004KT 18/17 A2997 RMK A01 T01780169  RH  097%=      5-min Rain = 0
KPVS 252115Z 05003KT 18/17 A2996 RMK A01 T01770168  RH  097%=      5-min Rain = 0
KPVS 252120Z 06004KT 18/17 A2995 RMK A01 T01770168  RH  097%=      5-min Rain = 0
KPVS 252125Z 05004KT 18/17 A2994 RMK A01 T01780169  RH  097%=      5-min Rain = 0
KPVS 252130Z 05005KT 18/17 A2993 RMK A01 T01790169  RH  096%=      5-min Rain = 0
KPVS 252135Z 05003KT 18/17 A2993 RMK A01 T01800170  RH  096%=      5-min Rain = 0
KPVS 252140Z 07005KT 18/17 A2993 RMK A01 T01800169  RH  096%=      5-min Rain = 0
KPVS 252145Z 08006KT 18/17 A2992 RMK A01 T01800170  RH  096%=      5-min Rain = 0
KPVS 252150Z 07005KT 18/17 A2992 RMK A01 T01800170  RH  096%=      5-min Rain = 0
KPVS 252155Z 05005KT 18/17 A2993 RMK A01 T01810171  RH  096%=      5-min Rain = 0
KPVS 252200Z 05005KT 18/17 A2992 RMK A01 T01810171  RH  096%=      5-min Rain = 0
KPVS 252205Z 01005KT 18/17 A2995 RMK A01 T01810171  RH  096%=      5-min Rain = 0
KPVS 252210Z 00007KT 18/17 A2994 RMK A01 T01810171  RH  096%=      5-min Rain = 0
KPVS 252215Z 00011G16KT 18/17 A2993 RMK A01 T01800170  RH  096%=      5-min Rain = 0
KPVS 252220Z 01012KT 18/17 A2992 RMK A01 T01790171  RH  097%=      5-min Rain = 0.01
KPVS 252225Z 04009KT 18/17 A2991 RMK A01 T01790171  RH  097%=      5-min Rain = 0
KPVS 252230Z 05011G16KT 18/17 A299 RMK A01 T01810172  RH  097%=      5-min Rain = 0
KPVS 252235Z 24012G24KT 18/17 A2992 RMK A01 T01810172  RH  097%=      5-min Rain = 0.07
KPVS 252240Z 27017G26KT 18/17 A2993 RMK A01 T01780170  RH  098%=      5-min Rain = 0.27
KPVS 252245Z 24012G19KT 18/17 A2993 RMK A01 T01750168  RH  098%=      5-min Rain = 0.2
KPVS 252250Z 30009G19KT 17/17 A2994 RMK A01 T01740168  RH  099%=      5-min Rain = 0.24
KPVS 252255Z 33020G34KT 18/17 A2993 RMK A01 T01760165  RH  096%=      5-min Rain = 0.32
KPVS 252300Z 31016G23KT 18/17 A2991 RMK A01 T01750165  RH  096%=      5-min Rain = 0.32
KPVS 252305Z 30017G28KT 18/17 A2992 RMK A01 T01750167  RH  098%=      5-min Rain = 0.29
KPVS 252310Z 27005G14KT 17/16 A2995 RMK A01 T01730164  RH  097%=      5-min Rain = 0.28
KPVS 252315Z 11005KT 17/16 A2995 RMK A01 T01680163  RH  099%=      5-min Rain = 0.2
KPVS 252320Z 14005KT 17/16 A2998 RMK A01 T01670164  RH  100%=      5-min Rain = 0.04
KPVS 252325Z 18002KT 17/16 A2998 RMK A01 T01660162  RH  100%=      5-min Rain = 0.01
KPVS 252330Z 16003KT 17/16 A2998 RMK A01 T01650162  RH  100%=      5-min Rain = 0
KPVS 252335Z 35006KT 17/16 A2995 RMK A01 T01650161  RH  100%=      5-min Rain = 0.01
KPVS 252340Z 29009G15KT 17/16 A2999 RMK A01 T01660162  RH  100%=      5-min Rain = 0
KPVS 252345Z 31015G26KT 17/16 A2997 RMK A01 T01670162  RH  099%=      5-min Rain = 0.22
KPVS 252350Z 04016G27KT 15/14 A2996 RMK A01 T01540141  RH  094%=      5-min Rain = 0.21
KPVS 252355Z 07012G19KT 15/14 A2997 RMK A01 T01540142  RH  094%=      5-min Rain = 0.33
KPVS 260000Z 02005G11KT 15/14 A2994 RMK A01 T01530143  RH  095%=      5-min Rain = 0.04
KPVS 260005Z 31003KT 16/15 A2995 RMK A01 T01560148  RH  097%=      5-min Rain = 0
KPVS 260010Z 19001KT 16/15 A2995 RMK A01 T01620154  RH  097%=      5-min Rain = 0
KPVS 260015Z 14005KT 16/16 A2995 RMK A01 T01640156  RH  097%=      5-min Rain = 0
KPVS 260020Z 13006KT 17/16 A2994 RMK A01 T01650157  RH  097%=      5-min Rain = 0
KPVS 260025Z 14003KT 17/16 A2994 RMK A01 T01660159  RH  098%=      5-min Rain = 0
KPVS 260030Z 10004KT 17/16 A2994 RMK A01 T01670160  RH  098%=      5-min Rain = 0
KPVS 260035Z 09004KT 17/16 A2994 RMK A01 T01670160  RH  098%=      5-min Rain = 0
KPVS 260040Z 08003KT 17/16 A2994 RMK A01 T01670160  RH  098%=      5-min Rain = 0
KPVS 260045Z 07004KT 17/16 A2994 RMK A01 T01660159  RH  098%=      5-min Rain = 0
KPVS 260050Z 05005KT 17/16 A2995 RMK A01 T01660159  RH  098%=      5-min Rain = 0
KPVS 260055Z 05005KT 17/16 A2995 RMK A01 T01660160  RH  098%=      5-min Rain = 0
KPVS 260100Z 05005KT 17/16 A2995 RMK A01 T01670160  RH  098%=      5-min Rain = 0
KPVS 260105Z 06006KT 17/16 A2995 RMK A01 T01680160  RH  097%=      5-min Rain = 0
KPVS 260110Z 06006KT 17/16 A2995 RMK A01 T01700160  RH  096%=      5-min Rain = 0
KPVS 260115Z 07005KT 17/16 A2995 RMK A01 T01710160  RH  095%=      5-min Rain = 0
KPVS 260120Z 07004KT 17/16 A2994 RMK A01 T01710160  RH  096%=      5-min Rain = 0
KPVS 260125Z 07004KT 17/16 A2995 RMK A01 T01700160  RH  096%=      5-min Rain = 0
KPVS 260130Z 08004KT 17/16 A2995 RMK A01 T01690160  RH  097%=      5-min Rain = 0
KPVS 260135Z 08004KT 17/16 A2995 RMK A01 T01690160  RH  097%=      5-min Rain = 0
KPVS 260140Z 07004KT 17/16 A2995 RMK A01 T01680160  RH  097%=      5-min Rain = 0
KPVS 260145Z 07003KT 17/16 A2995 RMK A01 T01680160  RH  097%=      5-min Rain = 0
KPVS 260150Z 08003KT 17/16 A2995 RMK A01 T01680160  RH  097%=      5-min Rain = 0
KPVS 260155Z 09005KT 17/16 A2995 RMK A01 T01690162  RH  098%=      5-min Rain = 0.01
KPVS 260200Z 11005KT 17/16 A2995 RMK A01 T01710164  RH  098%=      5-min Rain = 0
KPVS 260205Z 12005KT 17/16 A2995 RMK A01 T01710164  RH  098%=      5-min Rain = 0
KPVS 260210Z 12005KT 17/16 A2995 RMK A01 T01700163  RH  098%=      5-min Rain = 0
KPVS 260215Z 12006KT 17/17 A2995 RMK A01 T01710165  RH  098%=      5-min Rain = 0
KPVS 260220Z 12006KT 17/17 A2995 RMK A01 T01730167  RH  099%=      5-min Rain = 0
KPVS 260225Z 12007KT 18/17 A2995 RMK A01 T01750170  RH  099%=      5-min Rain = 0
KPVS 260230Z 12007KT 18/17 A2995 RMK A01 T01770172  RH  099%=      5-min Rain = 0
KPVS 260235Z 13008KT 18/17 A2995 RMK A01 T01780173  RH  099%=      5-min Rain = 0
KPVS 260240Z 12008KT 18/18 A2995 RMK A01 T01790175  RH  100%=      5-min Rain = 0
KPVS 260245Z 12008KT 18/18 A2995 RMK A01 T01820178  RH  100%=      5-min Rain = 0
KPVS 260250Z 13008KT 18/18 A2995 RMK A01 T01820178  RH  100%=      5-min Rain = 0
KPVS 260255Z 13009KT 18/18 A2995 RMK A01 T01840179  RH  100%=      5-min Rain = 0
KPVS 260300Z 13007KT 19/18 A2995 RMK A01 T01850180  RH  100%=      5-min Rain = 0
KPVS 260305Z 13005KT 19/18 A2995 RMK A01 T01850180  RH  099%=      5-min Rain = 0
KPVS 260310Z 14005KT 19/18 A2995 RMK A01 T01850180  RH  099%=      5-min Rain = 0
KPVS 260315Z 15008KT 19/18 A2995 RMK A01 T01880184  RH  100%=      5-min Rain = 0
KPVS 260320Z 15009G14KT 20/19 A2995 RMK A01 T01950190  RH  100%=      5-min Rain = 0
KPVS 260325Z 15011KT 20/19 A2994 RMK A01 T01980191  RH  098%=      5-min Rain = 0
KPVS 260330Z 15011KT 20/19 A2994 RMK A01 T02000190  RH  097%=      5-min Rain = 0
KPVS 260335Z 15010KT 20/19 A2994 RMK A01 T02010190  RH  096%=      5-min Rain = 0
KPVS 260340Z 15008KT 20/19 A2994 RMK A01 T02020190  RH  095%=      5-min Rain = 0
KPVS 260345Z 15008KT 20/19 A2994 RMK A01 T02020190  RH  095%=      5-min Rain = 0
KPVS 260350Z 16007KT 20/19 A2994 RMK A01 T02030189  RH  094%=      5-min Rain = 0
KPVS 260355Z 16007KT 20/19 A2994 RMK A01 T02020188  RH  094%=      5-min Rain = 0
KPVS 260400Z 16008KT 20/19 A2994 RMK A01 T02020188  RH  095%=      5-min Rain = 0
KPVS 260405Z 16007KT 20/19 A2995 RMK A01 T02020189  RH  094%=      5-min Rain = 0
KPVS 260410Z 17006KT 20/19 A2995 RMK A01 T02020188  RH  094%=      5-min Rain = 0
KPVS 260415Z 16006KT 20/19 A2995 RMK A01 T02010187  RH  094%=      5-min Rain = 0
KPVS 260420Z 15007KT 20/19 A2995 RMK A01 T02010188  RH  095%=      5-min Rain = 0
KPVS 260425Z 16007KT 20/19 A2995 RMK A01 T02010188  RH  094%=      5-min Rain = 0
KPVS 260430Z 17006KT 20/19 A2995 RMK A01 T02000186  RH  094%=      5-min Rain = 0
KPVS 260435Z 16008KT 20/19 A2995 RMK A01 T01990186  RH  095%=      5-min Rain = 0
KPVS 260440Z 16008KT 20/19 A2995 RMK A01 T02000187  RH  095%=      5-min Rain = 0
KPVS 260445Z 17009KT 20/19 A2995 RMK A01 T02010187  RH  094%=      5-min Rain = 0
KPVS 260450Z 17009KT 20/19 A2996 RMK A01 T02020187  RH  093%=      5-min Rain = 0
KPVS 260455Z 17009KT 20/19 A2996 RMK A01 T02020187  RH  093%=      5-min Rain = 0

Page generated in 0.0093 seconds.